sensor_id;sensor_type;location;lat;lon;timestamp;P1;durP1;ratioP1;P2;durP2;ratioP2
76735;SDS011;70098;44.562;0.086;2024-02-16T00:13:15;20.77;;;9.67;;
76735;SDS011;70098;44.562;0.086;2024-02-16T00:28:35;22.87;;;9.93;;
76735;SDS011;70098;44.562;0.086;2024-02-16T00:43:58;37.10;;;13.63;;
76735;SDS011;70098;44.562;0.086;2024-02-16T00:59:14;157.60;;;23.37;;
76735;SDS011;70098;44.562;0.086;2024-02-16T01:14:33;94.83;;;20.53;;
76735;SDS011;70098;44.562;0.086;2024-02-16T01:29:55;18.00;;;7.17;;
76735;SDS011;70098;44.562;0.086;2024-02-16T01:45:11;17.93;;;5.27;;
76735;SDS011;70098;44.562;0.086;2024-02-16T02:00:30;9.40;;;3.10;;
76735;SDS011;70098;44.562;0.086;2024-02-16T02:15:50;9.33;;;2.13;;
76735;SDS011;70098;44.562;0.086;2024-02-16T02:31:08;16.27;;;2.17;;
76735;SDS011;70098;44.562;0.086;2024-02-16T02:46:28;17.23;;;2.33;;
76735;SDS011;70098;44.562;0.086;2024-02-16T03:01:48;21.67;;;1.97;;
76735;SDS011;70098;44.562;0.086;2024-02-16T03:17:07;10.37;;;1.40;;
76735;SDS011;70098;44.562;0.086;2024-02-16T03:32:27;18.37;;;2.30;;
76735;SDS011;70098;44.562;0.086;2024-02-16T03:47:45;25.97;;;2.63;;
76735;SDS011;70098;44.562;0.086;2024-02-16T04:03:05;11.97;;;2.00;;
76735;SDS011;70098;44.562;0.086;2024-02-16T04:18:25;19.47;;;2.90;;
76735;SDS011;70098;44.562;0.086;2024-02-16T04:33:45;10.63;;;2.40;;
76735;SDS011;70098;44.562;0.086;2024-02-16T04:49:04;12.60;;;1.83;;
76735;SDS011;70098;44.562;0.086;2024-02-16T05:04:24;20.07;;;2.53;;
76735;SDS011;70098;44.562;0.086;2024-02-16T05:19:44;27.50;;;2.60;;
76735;SDS011;70098;44.562;0.086;2024-02-16T05:35:04;20.17;;;3.23;;
76735;SDS011;70098;44.562;0.086;2024-02-16T05:50:23;22.43;;;3.03;;
76735;SDS011;70098;44.562;0.086;2024-02-16T06:05:41;27.80;;;3.63;;
76735;SDS011;70098;44.562;0.086;2024-02-16T06:21:01;20.33;;;3.23;;
76735;SDS011;70098;44.562;0.086;2024-02-16T06:36:22;27.13;;;4.23;;
76735;SDS011;70098;44.562;0.086;2024-02-16T06:51:41;22.37;;;3.93;;
76735;SDS011;70098;44.562;0.086;2024-02-16T07:06:59;34.80;;;4.50;;
76735;SDS011;70098;44.562;0.086;2024-02-16T07:22:19;41.80;;;4.80;;
76735;SDS011;70098;44.562;0.086;2024-02-16T07:37:39;44.27;;;5.67;;
76735;SDS011;70098;44.562;0.086;2024-02-16T07:52:59;19.97;;;3.63;;
76735;SDS011;70098;44.562;0.086;2024-02-16T08:08:20;37.83;;;4.63;;
76735;SDS011;70098;44.562;0.086;2024-02-16T08:23:37;27.23;;;4.87;;
76735;SDS011;70098;44.562;0.086;2024-02-16T08:38:59;26.30;;;5.70;;
76735;SDS011;70098;44.562;0.086;2024-02-16T08:54:17;30.07;;;4.83;;
76735;SDS011;70098;44.562;0.086;2024-02-16T09:09:37;28.53;;;4.37;;
76735;SDS011;70098;44.562;0.086;2024-02-16T09:24:56;25.23;;;4.20;;
76735;SDS011;70098;44.562;0.086;2024-02-16T09:40:16;35.87;;;4.53;;
76735;SDS011;70098;44.562;0.086;2024-02-16T09:55:35;24.23;;;4.20;;
76735;SDS011;70098;44.562;0.086;2024-02-16T10:11:00;23.60;;;4.13;;
76735;SDS011;70098;44.562;0.086;2024-02-16T10:26:15;21.40;;;3.33;;
76735;SDS011;70098;44.562;0.086;2024-02-16T10:41:34;31.17;;;4.40;;
76735;SDS011;70098;44.562;0.086;2024-02-16T10:56:55;19.27;;;2.50;;
76735;SDS011;70098;44.562;0.086;2024-02-16T11:12:15;16.37;;;3.47;;
76735;SDS011;70098;44.562;0.086;2024-02-16T11:27:36;17.73;;;2.67;;
76735;SDS011;70098;44.562;0.086;2024-02-16T11:42:59;24.00;;;3.00;;
76735;SDS011;70098;44.562;0.086;2024-02-16T11:58:15;15.00;;;3.03;;
76735;SDS011;70098;44.562;0.086;2024-02-16T12:13:35;11.97;;;2.23;;
76735;SDS011;70098;44.562;0.086;2024-02-16T12:28:54;10.43;;;1.90;;
76735;SDS011;70098;44.562;0.086;2024-02-16T12:44:14;11.30;;;2.07;;
76735;SDS011;70098;44.562;0.086;2024-02-16T12:59:33;10.67;;;1.60;;
76735;SDS011;70098;44.562;0.086;2024-02-16T13:14:51;11.97;;;1.90;;
76735;SDS011;70098;44.562;0.086;2024-02-16T13:30:12;11.03;;;1.63;;
76735;SDS011;70098;44.562;0.086;2024-02-16T13:45:47;8.57;;;1.30;;
76735;SDS011;70098;44.562;0.086;2024-02-16T14:00:52;16.83;;;1.77;;
76735;SDS011;70098;44.562;0.086;2024-02-16T14:16:11;9.60;;;1.73;;
76735;SDS011;70098;44.562;0.086;2024-02-16T14:31:29;10.07;;;1.37;;
76735;SDS011;70098;44.562;0.086;2024-02-16T14:46:47;18.40;;;2.00;;
76735;SDS011;70098;44.562;0.086;2024-02-16T15:02:07;8.17;;;2.10;;
76735;SDS011;70098;44.562;0.086;2024-02-16T15:17:28;9.87;;;2.43;;
76735;SDS011;70098;44.562;0.086;2024-02-16T15:32:46;8.30;;;1.63;;
76735;SDS011;70098;44.562;0.086;2024-02-16T15:48:06;10.40;;;1.37;;
76735;SDS011;70098;44.562;0.086;2024-02-16T16:03:25;10.13;;;1.87;;
76735;SDS011;70098;44.562;0.086;2024-02-16T16:18:45;10.63;;;2.10;;
76735;SDS011;70098;44.562;0.086;2024-02-16T16:34:03;20.20;;;3.03;;
76735;SDS011;70098;44.562;0.086;2024-02-16T16:49:23;11.13;;;2.37;;
76735;SDS011;70098;44.562;0.086;2024-02-16T17:04:43;13.43;;;1.80;;
76735;SDS011;70098;44.562;0.086;2024-02-16T17:20:03;8.73;;;1.80;;
76735;SDS011;70098;44.562;0.086;2024-02-16T17:35:21;5.87;;;1.40;;
76735;SDS011;70098;44.562;0.086;2024-02-16T17:50:40;8.17;;;1.73;;
76735;SDS011;70098;44.562;0.086;2024-02-16T18:05:59;14.87;;;1.73;;
76735;SDS011;70098;44.562;0.086;2024-02-16T18:21:18;7.27;;;1.70;;
76735;SDS011;70098;44.562;0.086;2024-02-16T18:36:37;7.80;;;1.87;;
76735;SDS011;70098;44.562;0.086;2024-02-16T18:51:57;11.33;;;2.20;;
76735;SDS011;70098;44.562;0.086;2024-02-16T19:07:16;9.87;;;1.50;;
76735;SDS011;70098;44.562;0.086;2024-02-16T19:22:34;12.90;;;1.97;;
76735;SDS011;70098;44.562;0.086;2024-02-16T19:37:53;9.53;;;1.70;;
76735;SDS011;70098;44.562;0.086;2024-02-16T19:53:13;8.43;;;1.80;;
76735;SDS011;70098;44.562;0.086;2024-02-16T20:08:31;8.87;;;2.10;;
76735;SDS011;70098;44.562;0.086;2024-02-16T20:23:51;7.67;;;1.63;;
76735;SDS011;70098;44.562;0.086;2024-02-16T20:39:10;13.40;;;1.87;;
76735;SDS011;70098;44.562;0.086;2024-02-16T20:54:31;7.63;;;1.83;;
76735;SDS011;70098;44.562;0.086;2024-02-16T21:09:49;5.53;;;1.60;;
76735;SDS011;70098;44.562;0.086;2024-02-16T21:25:08;7.73;;;1.70;;
76735;SDS011;70098;44.562;0.086;2024-02-16T21:40:27;7.30;;;1.63;;
76735;SDS011;70098;44.562;0.086;2024-02-16T21:55:47;10.50;;;2.13;;
76735;SDS011;70098;44.562;0.086;2024-02-16T22:11:07;12.00;;;2.67;;
76735;SDS011;70098;44.562;0.086;2024-02-16T22:26:26;9.77;;;2.23;;
76735;SDS011;70098;44.562;0.086;2024-02-16T22:41:45;11.43;;;2.63;;
76735;SDS011;70098;44.562;0.086;2024-02-16T22:57:06;12.23;;;2.30;;
76735;SDS011;70098;44.562;0.086;2024-02-16T23:12:24;13.97;;;2.80;;
76735;SDS011;70098;44.562;0.086;2024-02-16T23:27:42;14.40;;;2.33;;
76735;SDS011;70098;44.562;0.086;2024-02-16T23:43:02;11.13;;;2.53;;
76735;SDS011;70098;44.562;0.086;2024-02-16T23:58:22;21.77;;;3.40;;
